Time;durP1;ratioP1;P1;durP2;ratioP2;P2;SDS_P1;SDS_P2;PMS_P1;PMS_P2;Temp;Humidity;BMP_temperature;BMP_pressure;BME280_temperature;BME280_humidity;BME280_pressure;Samples;Min_cycle;Max_cycle;Signal;HPM_P1;HPM_P2
2023/08/10 00:00:14;;;;;;;3.17;1.42;;;22.80;46.30;;;;;;4943581;28;20081;-70
2023/08/10 00:02:44;;;;;;;6.00;1.13;;;22.50;45.70;;;;;;4940992;28;20057;-68
2023/08/10 00:05:12;;;;;;;3.75;1.30;;;23.10;44.80;;;;;;4944055;28;20469;-70
2023/08/10 00:07:40;;;;;;;3.10;1.35;;;22.70;44.70;;;;;;4929504;28;20027;-70
2023/08/10 00:10:08;;;;;;;3.65;1.35;;;22.40;45.20;;;;;;4953840;28;20465;-70
2023/08/10 00:12:37;;;;;;;3.72;1.30;;;22.40;46.50;;;;;;4950007;28;20038;-69
2023/08/10 00:15:08;;;;;;;4.03;1.40;;;22.40;46.50;;;;;;4952043;28;20086;-69
2023/08/10 00:17:35;;;;;;;3.15;1.38;;;23.20;45.20;;;;;;4947684;28;20061;-69
2023/08/10 00:20:10;;;;;;;4.38;1.45;;;23.60;44.00;;;;;;4945769;28;20024;-71
2023/08/10 00:22:39;;;;;;;9.43;1.77;;;22.50;45.00;;;;;;4932156;28;20038;-71
2023/08/10 00:25:07;;;;;;;2.83;1.20;;;22.40;46.70;;;;;;4945015;28;20015;-71
2023/08/10 00:27:38;;;;;;;4.88;1.23;;;22.80;46.20;;;;;;4920553;28;20412;-69
2023/08/10 00:30:07;;;;;;;2.30;1.30;;;23.30;46.40;;;;;;4910435;28;20100;-69
2023/08/10 00:32:34;;;;;;;2.92;1.30;;;23.30;45.50;;;;;;4897764;29;20507;-69
2023/08/10 00:35:02;;;;;;;3.92;1.40;;;23.10;45.90;;;;;;4895817;29;20032;-70
2023/08/10 00:37:30;;;;;;;11.23;1.50;;;23.70;45.40;;;;;;4879512;29;20075;-69
2023/08/10 00:39:57;;;;;;;4.70;1.40;;;24.20;44.50;;;;;;4906618;29;20039;-70
2023/08/10 00:42:24;;;;;;;5.80;1.50;;;24.80;42.70;;;;;;4910294;29;20051;-70
2023/08/10 00:44:52;;;;;;;3.15;1.40;;;24.50;42.90;;;;;;4910112;29;20107;-69
2023/08/10 00:47:19;;;;;;;5.35;1.40;;;24.70;42.50;;;;;;4911054;29;20495;-71
2023/08/10 00:49:47;;;;;;;3.92;1.23;;;25.00;42.60;;;;;;4871964;29;20098;-69
2023/08/10 00:52:16;;;;;;;3.10;1.38;;;25.30;42.70;;;;;;4878739;29;20048;-70
2023/08/10 00:54:43;;;;;;;3.45;1.25;;;25.90;41.00;;;;;;4867592;29;20028;-70
2023/08/10 00:57:11;;;;;;;3.97;1.00;;;26.00;41.00;;;;;;4879251;29;20024;-69
2023/08/10 00:59:41;;;;;;;2.60;1.10;;;25.90;39.80;;;;;;4900726;28;20433;-70
2023/08/10 01:02:10;;;;;;;8.73;1.25;;;26.20;40.70;;;;;;4885409;29;20484;-71
2023/08/10 01:04:37;;;;;;;4.70;1.30;;;26.50;40.10;;;;;;4890528;28;20290;-70
2023/08/10 01:07:11;;;;;;;5.38;1.42;;;26.20;40.00;;;;;;4915360;29;20730;-71
2023/08/10 01:10:10;;;;;;;3.05;0.93;;;26.00;40.00;;;;;;4883589;28;20492;-69
2023/08/10 01:13:06;;;;;;;4.70;0.90;;;25.70;40.20;;;;;;4926595;29;20059;-70
2023/08/10 01:15:53;;;;;;;1.80;0.93;;;26.10;39.50;;;;;;4941512;29;20044;-69
2023/08/10 01:18:27;;;;;;;3.03;1.30;;;26.30;39.90;;;;;;4934911;28;20446;-69
2023/08/10 01:21:03;;;;;;;3.05;0.90;;;26.70;39.80;;;;;;4882067;28;20054;-70
2023/08/10 01:24:03;;;;;;;3.63;1.00;;;26.60;39.60;;;;;;4867085;28;20438;-70
2023/08/10 01:26:34;;;;;;;2.08;1.00;;;25.60;39.50;;;;;;4907347;28;20290;-71
2023/08/10 01:29:02;;;;;;;9.20;1.10;;;26.00;39.80;;;;;;4903337;28;20035;-71
2023/08/10 01:31:31;;;;;;;9.05;0.90;;;26.70;38.30;;;;;;4909202;28;20275;-72
2023/08/10 01:33:59;;;;;;;1.95;0.93;;;26.50;37.20;;;;;;4909463;28;20521;-70
2023/08/10 01:36:28;;;;;;;5.50;1.02;;;26.70;39.00;;;;;;4860228;29;20280;-69
2023/08/10 01:38:56;;;;;;;3.38;1.30;;;27.50;37.10;;;;;;4924301;28;20204;-69
2023/08/10 01:41:26;;;;;;;2.97;1.10;;;27.30;37.40;;;;;;4907358;28;20298;-70
2023/08/10 01:43:53;;;;;;;6.18;1.00;;;26.90;35.70;;;;;;4880062;29;20954;-71
2023/08/10 01:46:23;;;;;;;2.95;1.10;;;26.20;37.30;;;;;;4911718;29;20038;-70
2023/08/10 01:48:53;;;;;;;3.10;0.90;;;26.60;34.70;;;;;;4931872;28;20023;-70
2023/08/10 01:51:25;;;;;;;12.43;1.15;;;25.80;34.70;;;;;;4917459;29;20207;-70
2023/08/10 01:53:53;;;;;;;1.42;0.70;;;25.70;34.70;;;;;;4920211;28;20037;-71
2023/08/10 01:56:21;;;;;;;7.10;1.38;;;25.30;34.20;;;;;;4914952;28;20031;-69
2023/08/10 01:58:48;;;;;;;1.60;0.80;;;25.20;34.50;;;;;;4909007;28;20362;-69
2023/08/10 02:01:16;;;;;;;3.65;0.85;;;25.10;35.10;;;;;;4917889;28;20035;-70
2023/08/10 02:03:44;;;;;;;4.20;1.20;;;24.40;35.70;;;;;;4917095;28;20037;-70
2023/08/10 02:06:11;;;;;;;5.15;1.10;;;23.90;38.40;;;;;;4889479;28;20027;-70
2023/08/10 02:08:41;;;;;;;3.60;1.17;;;24.00;47.20;;;;;;4890113;28;20931;-70
2023/08/10 02:11:09;;;;;;;3.10;1.13;;;24.50;36.20;;;;;;4917547;28;20787;-70
2023/08/10 02:13:36;;;;;;;3.63;1.35;;;25.10;35.60;;;;;;4931022;28;20035;-69
2023/08/10 02:16:05;;;;;;;2.20;1.05;;;24.90;35.90;;;;;;4903286;28;20512;-72
2023/08/10 02:18:32;;;;;;;4.45;1.15;;;24.00;37.40;;;;;;4920743;28;20027;-70
2023/08/10 02:21:00;;;;;;;3.90;1.10;;;23.80;38.00;;;;;;4937076;29;20370;-70
2023/08/10 02:23:30;;;;;;;2.92;1.05;;;23.50;38.40;;;;;;4899144;28;20817;-71
2023/08/10 02:25:59;;;;;;;5.40;1.17;;;24.00;38.00;;;;;;4899299;28;20039;-72
2023/08/10 02:28:27;;;;;;;2.13;0.90;;;24.40;37.10;;;;;;4886013;28;20057;-69
2023/08/10 02:30:54;;;;;;;1.98;0.90;;;24.10;37.20;;;;;;4922478;28;20034;-70
2023/08/10 02:33:22;;;;;;;3.28;0.93;;;23.50;37.50;;;;;;4911468;28;20035;-70
2023/08/10 02:35:49;;;;;;;2.40;1.20;;;23.50;37.60;;;;;;4938544;28;20476;-69
2023/08/10 02:38:16;;;;;;;2.25;1.10;;;24.50;36.70;;;;;;4943120;28;20078;-71
2023/08/10 02:40:44;;;;;;;1.38;0.57;;;25.20;35.20;;;;;;4946523;29;20031;-70
2023/08/10 02:43:11;;;;;;;2.92;0.90;;;24.40;35.70;;;;;;4947450;28;20027;-71
2023/08/10 02:45:39;;;;;;;2.25;1.10;;;23.70;36.00;;;;;;4940039;29;20082;-69
2023/08/10 02:48:06;;;;;;;2.95;0.57;;;23.40;36.40;;;;;;4975243;28;21876;-70
2023/08/10 02:50:34;;;;;;;5.03;0.77;;;24.10;36.20;;;;;;4949480;29;20082;-72
2023/08/10 02:53:02;;;;;;;1.60;0.77;;;24.30;35.80;;;;;;4944641;28;20039;-71
2023/08/10 02:55:29;;;;;;;4.65;0.80;;;24.60;36.20;;;;;;4947254;28;20031;-71
2023/08/10 02:57:58;;;;;;;1.23;0.70;;;24.90;35.40;;;;;;4947428;28;20054;-72
2023/08/10 03:00:25;;;;;;;2.20;0.90;;;24.20;36.00;;;;;;4941280;28;20154;-70
2023/08/10 03:02:52;;;;;;;4.18;0.70;;;23.70;36.50;;;;;;4918739;28;20134;-70
2023/08/10 03:05:20;;;;;;;3.47;0.82;;;24.20;35.80;;;;;;4934136;28;20121;-71
2023/08/10 03:07:48;;;;;;;1.88;1.00;;;24.70;36.20;;;;;;4944187;29;20155;-70
2023/08/10 03:10:16;;;;;;;2.42;0.70;;;24.80;35.60;;;;;;4936043;28;20224;-69
2023/08/10 03:12:43;;;;;;;3.05;0.80;;;24.90;35.70;;;;;;4934009;29;20213;-71
2023/08/10 03:15:11;;;;;;;4.55;0.90;;;25.20;35.90;;;;;;4940909;29;20282;-71
2023/08/10 03:17:39;;;;;;;2.80;1.13;;;25.30;35.00;;;;;;4939957;29;20031;-71
2023/08/10 03:20:16;;;;;;;1.75;0.65;;;25.30;35.20;;;;;;4939269;29;20027;-72
2023/08/10 03:22:45;;;;;;;3.42;0.75;;;25.30;35.40;;;;;;4939319;28;20039;-70
2023/08/10 03:25:14;;;;;;;1.52;0.80;;;25.20;35.20;;;;;;4943002;28;20469;-71
2023/08/10 03:27:53;;;;;;;2.00;0.57;;;25.10;35.30;;;;;;5058302;27;21000;-71
2023/08/10 03:30:20;;;;;;;4.72;0.70;;;25.00;35.30;;;;;;5057817;28;20182;-70
2023/08/10 03:32:48;;;;;;;1.50;0.60;;;24.90;35.70;;;;;;5048905;28;20197;-71
2023/08/10 03:35:15;;;;;;;2.85;0.60;;;24.70;36.20;;;;;;5058746;28;20028;-70
2023/08/10 03:37:42;;;;;;;2.20;0.60;;;24.60;36.00;;;;;;5048386;28;20060;-70
2023/08/10 03:40:11;;;;;;;1.52;0.40;;;24.20;36.30;;;;;;5052133;28;20075;-70
2023/08/10 03:42:39;;;;;;;1.67;0.70;;;24.30;36.90;;;;;;5049544;28;20044;-71
2023/08/10 03:45:07;;;;;;;5.65;0.68;;;24.40;36.70;;;;;;5049538;28;20051;-70
2023/08/10 03:47:37;;;;;;;2.10;0.60;;;24.50;36.80;;;;;;5050961;28;20051;-71
2023/08/10 03:50:06;;;;;;;3.22;0.73;;;24.30;36.80;;;;;;5065674;28;20458;-69
2023/08/10 03:52:34;;;;;;;2.03;0.55;;;24.00;37.30;;;;;;5057744;28;20029;-69
2023/08/10 03:55:01;;;;;;;2.53;0.63;;;23.90;38.00;;;;;;5066678;28;20029;-70
2023/08/10 03:57:29;;;;;;;1.55;0.63;;;23.80;37.50;;;;;;5067757;28;20135;-70
2023/08/10 03:59:56;;;;;;;4.72;0.80;;;23.90;37.40;;;;;;5079656;28;20029;-70
2023/08/10 04:02:24;;;;;;;0.75;0.57;;;23.90;37.30;;;;;;5066023;28;20017;-71
2023/08/10 04:04:51;;;;;;;6.70;0.90;;;24.00;37.40;;;;;;5053256;28;20039;-72
2023/08/10 04:07:18;;;;;;;1.58;0.52;;;24.10;37.40;;;;;;5049564;28;20033;-72
2023/08/10 04:09:47;;;;;;;1.00;0.70;;;24.10;37.10;;;;;;5050805;28;20208;-72
2023/08/10 04:12:15;;;;;;;6.80;1.10;;;24.10;37.10;;;;;;5042700;28;20917;-70
2023/08/10 04:14:42;;;;;;;3.03;0.80;;;24.00;37.60;;;;;;5061727;28;20056;-70
2023/08/10 04:17:10;;;;;;;4.97;0.60;;;24.00;37.70;;;;;;5056951;28;20025;-70
2023/08/10 04:19:37;;;;;;;0.80;0.60;;;23.90;37.80;;;;;;5057169;28;20036;-70
2023/08/10 04:22:06;;;;;;;1.67;0.50;;;23.90;37.40;;;;;;5042665;28;20032;-71
2023/08/10 04:24:33;;;;;;;4.93;0.70;;;23.90;37.90;;;;;;5069306;28;20110;-71
2023/08/10 04:27:00;;;;;;;3.35;0.60;;;24.00;37.80;;;;;;5058616;28;20127;-70
2023/08/10 04:29:28;;;;;;;2.50;0.60;;;24.00;38.00;;;;;;5055397;28;20749;-70
2023/08/10 04:31:56;;;;;;;17.05;1.70;;;23.90;37.80;;;;;;5062572;28;20119;-70
2023/08/10 04:34:24;;;;;;;4.88;0.90;;;23.70;37.80;;;;;;5062171;28;20119;-73
2023/08/10 04:36:51;;;;;;;3.38;0.90;;;23.30;38.40;;;;;;5063235;28;20029;-72
2023/08/10 04:39:19;;;;;;;0.90;0.52;;;23.30;38.50;;;;;;5044603;28;20086;-72
2023/08/10 04:41:46;;;;;;;1.63;0.57;;;23.20;38.90;;;;;;5038841;28;20040;-70
2023/08/10 04:44:14;;;;;;;3.55;0.70;;;23.30;38.70;;;;;;5047253;28;20017;-70
2023/08/10 04:46:41;;;;;;;3.63;0.80;;;23.30;38.70;;;;;;5045417;28;20037;-71
2023/08/10 04:49:08;;;;;;;1.63;0.50;;;23.20;38.70;;;;;;5050658;28;20024;-72
2023/08/10 04:51:36;;;;;;;2.38;0.63;;;23.20;39.20;;;;;;5036141;28;20447;-71
2023/08/10 04:54:03;;;;;;;1.90;0.55;;;23.00;38.70;;;;;;5052731;28;20036;-71
2023/08/10 04:56:31;;;;;;;2.03;0.85;;;23.10;39.20;;;;;;5049785;28;20024;-72
2023/08/10 04:58:58;;;;;;;1.63;0.60;;;22.90;39.60;;;;;;5045511;28;20130;-73
2023/08/10 05:01:26;;;;;;;2.42;0.95;;;22.90;39.20;;;;;;5041037;28;20032;-72
2023/08/10 05:03:54;;;;;;;2.97;0.80;;;22.80;38.30;;;;;;5034210;28;20061;-71
2023/08/10 05:06:21;;;;;;;5.85;1.00;;;22.70;37.70;;;;;;5037466;28;20473;-72
2023/08/10 05:08:49;;;;;;;1.88;0.65;;;22.60;38.50;;;;;;5033076;28;20507;-71
2023/08/10 05:11:16;;;;;;;1.90;0.55;;;22.50;38.80;;;;;;5037533;28;20024;-71
2023/08/10 05:13:44;;;;;;;4.60;0.70;;;22.50;37.70;;;;;;5033490;28;20040;-71
2023/08/10 05:16:11;;;;;;;1.13;0.73;;;22.40;37.90;;;;;;5033857;28;20029;-71
2023/08/10 05:18:39;;;;;;;4.60;0.70;;;22.40;38.00;;;;;;5033379;28;20021;-72
2023/08/10 05:21:12;;;;;;;4.63;1.00;;;22.40;37.80;;;;;;5036078;28;20120;-72
2023/08/10 05:23:40;;;;;;;2.53;0.80;;;22.50;37.90;;;;;;5055487;28;20116;-70
2023/08/10 05:26:08;;;;;;;2.85;0.70;;;22.50;38.20;;;;;;5012676;28;20420;-71
2023/08/10 05:28:36;;;;;;;2.25;0.68;;;22.40;37.40;;;;;;5046532;28;20025;-70
2023/08/10 05:31:03;;;;;;;2.97;0.55;;;22.50;37.20;;;;;;5026363;28;20367;-70
2023/08/10 05:33:30;;;;;;;2.80;0.73;;;22.50;36.90;;;;;;5038052;28;20064;-70
2023/08/10 05:35:58;;;;;;;1.70;0.70;;;22.60;37.70;;;;;;5033557;28;20029;-70
2023/08/10 05:38:28;;;;;;;2.35;0.60;;;22.60;38.00;;;;;;5029235;28;20029;-70
2023/08/10 05:40:56;;;;;;;3.13;0.40;;;22.60;37.00;;;;;;5035700;28;20036;-71
2023/08/10 05:43:23;;;;;;;2.28;0.63;;;22.60;36.90;;;;;;5033705;28;20171;-71
2023/08/10 05:45:51;;;;;;;4.28;0.60;;;22.60;35.40;;;;;;5031887;28;20083;-72
2023/08/10 05:48:18;;;;;;;3.45;1.15;;;22.40;36.50;;;;;;5042756;28;20128;-71
2023/08/10 05:50:46;;;;;;;1.10;0.57;;;22.30;37.00;;;;;;5033094;28;20386;-71
2023/08/10 05:53:13;;;;;;;2.78;0.75;;;22.30;35.40;;;;;;5025753;28;22389;-71
2023/08/10 05:55:42;;;;;;;1.90;0.80;;;22.40;35.10;;;;;;5032924;28;20030;-71
2023/08/10 05:58:09;;;;;;;1.42;0.55;;;22.50;34.00;;;;;;5031328;28;20026;-71
2023/08/10 06:00:37;;;;;;;2.20;0.75;;;22.40;32.90;;;;;;5026746;28;20045;-72
2023/08/10 06:03:05;;;;;;;2.22;0.45;;;22.20;32.60;;;;;;5022937;28;20454;-71
2023/08/10 06:05:33;;;;;;;1.40;0.30;;;22.20;33.50;;;;;;5034621;28;20025;-71
2023/08/10 06:08:00;;;;;;;3.03;0.50;;;22.40;33.00;;;;;;5024375;28;20037;-70
2023/08/10 06:10:28;;;;;;;2.42;0.65;;;22.30;32.40;;;;;;5031833;28;20022;-70
2023/08/10 06:12:55;;;;;;;3.05;0.57;;;22.20;32.70;;;;;;5015961;28;20140;-72
2023/08/10 06:15:24;;;;;;;1.95;0.40;;;22.20;32.70;;;;;;5005886;28;20025;-70
2023/08/10 06:17:51;;;;;;;1.67;0.38;;;22.20;31.80;;;;;;5029180;28;20512;-71
2023/08/10 06:20:21;;;;;;;1.17;0.57;;;21.90;31.20;;;;;;5021385;28;20982;-72
2023/08/10 06:22:49;;;;;;;0.98;0.38;;;21.80;32.40;;;;;;5048325;28;20020;-70
2023/08/10 06:25:17;;;;;;;0.60;0.20;;;21.80;31.90;;;;;;5034870;28;20029;-71
2023/08/10 06:27:47;;;;;;;0.30;0.20;;;21.80;32.20;;;;;;5042637;28;20887;-70
2023/08/10 06:30:14;;;;;;;1.70;0.35;;;21.70;31.40;;;;;;5046508;28;20040;-70
2023/08/10 06:32:41;;;;;;;2.60;0.40;;;21.60;31.10;;;;;;5045924;28;20386;-70
2023/08/10 06:35:10;;;;;;;4.43;0.45;;;21.40;31.20;;;;;;5040564;28;20028;-70
2023/08/10 06:37:38;;;;;;;1.15;0.40;;;21.10;31.50;;;;;;5048676;28;20566;-72
2023/08/10 06:40:08;;;;;;;2.05;0.45;;;21.00;31.50;;;;;;5046932;28;20078;-72
2023/08/10 06:42:37;;;;;;;2.65;0.43;;;20.90;32.70;;;;;;5049224;28;20032;-71
2023/08/10 06:45:05;;;;;;;1.48;0.70;;;20.80;32.20;;;;;;5054238;28;20107;-70
2023/08/10 06:47:33;;;;;;;2.15;0.80;;;20.80;32.10;;;;;;5041679;28;20048;-70
2023/08/10 06:50:01;;;;;;;5.05;1.42;;;20.60;32.60;;;;;;4983822;28;20971;-72
2023/08/10 06:52:28;;;;;;;4.22;1.30;;;20.40;32.80;;;;;;5014630;28;20060;-71
2023/08/10 06:54:56;;;;;;;3.60;1.05;;;20.40;33.00;;;;;;5056245;28;20040;-70
2023/08/10 06:57:23;;;;;;;1.83;0.90;;;20.30;33.30;;;;;;5044691;28;20053;-70
2023/08/10 06:59:51;;;;;;;2.33;0.98;;;20.40;33.20;;;;;;5055882;28;20504;-70
2023/08/10 07:02:18;;;;;;;2.70;1.27;;;20.20;33.50;;;;;;5045666;28;20025;-70
2023/08/10 07:04:45;;;;;;;3.05;1.17;;;20.10;34.00;;;;;;5041882;28;20029;-70
2023/08/10 07:07:16;;;;;;;4.32;1.38;;;20.00;34.10;;;;;;5033742;28;20052;-69
2023/08/10 07:09:43;;;;;;;2.58;0.95;;;19.80;34.60;;;;;;5050653;28;20136;-69
2023/08/10 07:12:11;;;;;;;1.98;1.10;;;19.70;35.00;;;;;;5042761;28;20060;-69
2023/08/10 07:14:38;;;;;;;3.50;1.50;;;19.60;35.10;;;;;;5039107;28;20025;-70
2023/08/10 07:17:05;;;;;;;3.15;1.10;;;19.40;35.70;;;;;;5044582;28;20722;-70
2023/08/10 07:19:33;;;;;;;15.80;8.25;;;19.10;36.00;;;;;;5034121;28;20027;-69
2023/08/10 07:22:00;;;;;;;27.20;16.00;;;18.90;37.00;;;;;;5045327;28;20769;-69
2023/08/10 07:24:27;;;;;;;23.60;14.05;;;18.80;37.70;;;;;;5034126;28;20029;-71
2023/08/10 07:26:56;;;;;;;18.38;10.73;;;18.70;38.40;;;;;;4989976;28;20052;-71
2023/08/10 07:29:24;;;;;;;9.63;4.22;;;18.50;38.70;;;;;;5039170;28;20021;-69
2023/08/10 07:31:55;;;;;;;4.22;2.72;;;18.30;38.70;;;;;;5040149;28;20058;-70
2023/08/10 07:34:23;;;;;;;3.47;1.98;;;18.30;39.00;;;;;;5048341;28;20081;-69
2023/08/10 07:36:50;;;;;;;3.35;1.83;;;18.30;39.30;;;;;;5039255;28;20433;-68
2023/08/10 07:39:17;;;;;;;3.80;0.80;;;18.20;39.50;;;;;;5044504;28;20033;-68
2023/08/10 07:41:45;;;;;;;1.88;0.68;;;18.10;39.70;;;;;;5031153;28;20033;-69
2023/08/10 07:44:12;;;;;;;2.65;0.45;;;18.00;40.10;;;;;;5050735;28;20028;-69
2023/08/10 07:46:39;;;;;;;1.15;0.60;;;18.10;39.90;;;;;;5039945;28;20371;-69
2023/08/10 07:49:07;;;;;;;3.20;0.52;;;18.00;40.20;;;;;;5050810;28;20033;-69
2023/08/10 07:51:34;;;;;;;2.80;1.45;;;17.90;40.50;;;;;;5035652;28;20369;-69
2023/08/10 07:54:02;;;;;;;2.38;1.08;;;17.80;41.00;;;;;;5041836;28;20033;-70
2023/08/10 07:56:29;;;;;;;1.75;0.60;;;17.80;41.20;;;;;;5045172;28;20475;-70
2023/08/10 07:58:56;;;;;;;1.38;0.65;;;17.80;41.20;;;;;;5040710;28;20439;-70
2023/08/10 08:01:24;;;;;;;0.45;0.30;;;17.70;41.40;;;;;;5036152;28;20036;-70
2023/08/10 08:03:51;;;;;;;0.52;0.25;;;17.60;41.70;;;;;;5041408;28;20028;-69
2023/08/10 08:06:18;;;;;;;1.23;0.40;;;17.60;42.00;;;;;;5042366;28;20485;-69
2023/08/10 08:08:46;;;;;;;2.17;0.40;;;17.50;42.00;;;;;;5043398;28;20482;-69
2023/08/10 08:11:13;;;;;;;1.40;0.50;;;17.40;42.50;;;;;;5046408;28;20021;-68
2023/08/10 08:13:40;;;;;;;1.88;0.50;;;17.50;42.20;;;;;;5042129;28;20025;-69
2023/08/10 08:16:08;;;;;;;1.45;0.40;;;17.40;42.40;;;;;;5052696;28;20115;-68
2023/08/10 08:18:55;;;;;;;1.50;0.45;;;17.50;43.00;;;;;;5056552;28;20138;-68
2023/08/10 08:21:28;;;;;;;5.50;0.47;;;17.40;42.70;;;;;;5047446;28;20028;-69
2023/08/10 08:23:56;;;;;;;3.33;0.88;;;17.30;43.00;;;;;;5048167;28;20075;-69
2023/08/10 08:26:26;;;;;;;1.90;0.40;;;17.20;43.40;;;;;;5047536;28;20052;-69
2023/08/10 08:28:54;;;;;;;2.33;0.43;;;17.10;43.80;;;;;;5044471;28;20692;-68
2023/08/10 08:31:26;;;;;;;1.58;0.40;;;17.00;44.20;;;;;;5037116;28;20064;-70
2023/08/10 08:33:54;;;;;;;2.45;0.60;;;17.00;44.50;;;;;;5050873;28;20021;-69
2023/08/10 08:36:21;;;;;;;1.55;0.47;;;16.90;44.70;;;;;;5051706;28;20033;-69
2023/08/10 08:38:49;;;;;;;1.75;0.63;;;16.80;45.00;;;;;;5026031;28;20033;-70
2023/08/10 08:41:18;;;;;;;1.10;0.40;;;16.80;45.20;;;;;;5050034;28;20379;-70
2023/08/10 08:43:47;;;;;;;1.75;0.45;;;16.70;45.40;;;;;;5050714;28;20040;-69
2023/08/10 08:46:16;;;;;;;1.58;0.68;;;16.60;45.50;;;;;;5035782;28;20030;-70
2023/08/10 08:48:44;;;;;;;4.88;1.00;;;16.60;45.90;;;;;;5049786;28;20032;-69
2023/08/10 08:51:11;;;;;;;2.47;0.90;;;16.50;45.90;;;;;;5042744;28;20207;-69
2023/08/10 08:53:39;;;;;;;1.77;0.77;;;16.50;47.00;;;;;;5043518;28;20033;-70
2023/08/10 08:56:07;;;;;;;4.05;1.50;;;16.50;46.50;;;;;;5046292;28;20059;-68
2023/08/10 08:58:35;;;;;;;2.55;1.55;;;16.30;46.60;;;;;;5051438;28;20378;-69
2023/08/10 09:01:03;;;;;;;2.28;1.00;;;16.30;46.80;;;;;;5047067;28;20020;-69
2023/08/10 09:03:31;;;;;;;2.15;0.60;;;16.40;46.80;;;;;;5054005;28;20788;-68
2023/08/10 09:05:58;;;;;;;8.60;1.60;;;16.50;46.70;;;;;;5056304;28;20029;-69
2023/08/10 09:08:26;;;;;;;2.25;1.08;;;16.50;46.70;;;;;;5047417;28;20097;-69
2023/08/10 09:10:54;;;;;;;2.80;1.00;;;16.30;46.80;;;;;;5038274;28;20416;-69
2023/08/10 09:13:23;;;;;;;1.92;0.70;;;16.10;47.50;;;;;;5043442;28;20060;-68
2023/08/10 09:16:10;;;;;;;3.78;0.80;;;16.00;47.90;;;;;;5045565;28;20029;-68
2023/08/10 09:18:40;;;;;;;3.85;0.95;;;15.90;47.70;;;;;;5049925;28;20045;-68
2023/08/10 09:21:08;;;;;;;2.10;0.80;;;15.80;47.90;;;;;;5032569;28;20113;-70
2023/08/10 09:23:38;;;;;;;2.72;0.80;;;15.70;47.80;;;;;;5033596;28;20021;-69
2023/08/10 09:26:10;;;;;;;2.15;1.00;;;15.60;48.90;;;;;;5046572;28;20051;-69
2023/08/10 09:28:38;;;;;;;2.63;1.00;;;15.60;48.80;;;;;;5041355;28;20040;-69
2023/08/10 09:31:10;;;;;;;4.68;0.90;;;15.50;48.60;;;;;;5051967;28;20060;-68
2023/08/10 09:33:38;;;;;;;2.88;1.10;;;15.40;48.50;;;;;;5059862;28;20027;-69
2023/08/10 09:36:08;;;;;;;3.55;1.02;;;15.40;48.70;;;;;;5046721;28;20028;-69
2023/08/10 09:38:35;;;;;;;7.97;4.25;;;15.40;48.70;;;;;;5049627;28;20047;-69
2023/08/10 09:41:20;;;;;;;26.40;16.00;;;15.30;49.10;;;;;;5058348;28;20029;-68
2023/08/10 09:43:48;;;;;;;19.58;11.45;;;15.10;49.50;;;;;;5056467;28;20417;-69
2023/08/10 09:46:16;;;;;;;13.60;7.15;;;15.00;50.10;;;;;;5049950;28;20486;-69
2023/08/10 09:48:50;;;;;;;12.88;8.55;;;14.90;50.90;;;;;;5059055;28;20040;-69
2023/08/10 09:51:17;;;;;;;16.27;9.25;;;14.80;50.80;;;;;;5056751;28;20040;-69
2023/08/10 09:53:45;;;;;;;4.18;2.55;;;14.80;51.70;;;;;;5055603;28;20036;-69
2023/08/10 09:56:12;;;;;;;6.40;2.42;;;14.70;51.10;;;;;;5057120;28;20053;-69
2023/08/10 09:58:42;;;;;;;2.75;1.05;;;14.60;51.70;;;;;;5050160;28;20111;-69
2023/08/10 10:01:10;;;;;;;2.20;1.00;;;14.50;51.70;;;;;;5047322;28;20035;-69
2023/08/10 10:03:37;;;;;;;4.97;0.70;;;14.40;51.70;;;;;;5052078;28;20025;-69
2023/08/10 10:06:05;;;;;;;2.72;1.00;;;14.40;51.70;;;;;;5060318;28;20045;-68
2023/08/10 10:08:37;;;;;;;4.72;0.93;;;14.50;51.70;;;;;;5053799;28;20036;-69
2023/08/10 10:11:12;;;;;;;3.80;1.23;;;14.70;51.10;;;;;;5059160;28;20397;-69
2023/08/10 10:13:41;;;;;;;3.08;1.10;;;14.80;51.00;;;;;;5056526;28;20033;-68
2023/08/10 10:16:10;;;;;;;3.50;0.90;;;14.60;51.40;;;;;;5055856;28;20398;-68
2023/08/10 10:18:38;;;;;;;2.63;1.00;;;14.70;51.30;;;;;;5051346;28;20036;-69
2023/08/10 10:21:07;;;;;;;1.90;0.90;;;14.80;51.20;;;;;;5056074;28;20066;-69
2023/08/10 10:23:41;;;;;;;3.67;1.10;;;14.80;50.90;;;;;;5052414;28;20378;-69
2023/08/10 10:26:10;;;;;;;1.80;1.00;;;14.60;52.10;;;;;;5045149;28;20110;-68
2023/08/10 10:28:39;;;;;;;3.97;1.30;;;14.40;53.00;;;;;;5049595;28;20031;-68
2023/08/10 10:31:10;;;;;;;2.70;1.20;;;14.10;53.60;;;;;;5055115;28;20106;-67
2023/08/10 10:33:40;;;;;;;3.47;1.20;;;13.90;53.60;;;;;;5049005;28;20028;-68
2023/08/10 10:36:12;;;;;;;6.85;1.52;;;13.70;54.50;;;;;;5054590;28;20029;-68
2023/08/10 10:38:41;;;;;;;3.17;1.30;;;13.50;55.30;;;;;;5053081;28;20406;-68
2023/08/10 10:41:29;;;;;;;4.63;1.23;;;13.40;56.00;;;;;;5050006;28;20028;-68
2023/08/10 10:43:59;;;;;;;4.28;1.25;;;13.40;56.40;;;;;;5049246;28;20035;-68
2023/08/10 10:46:36;;;;;;;4.18;1.45;;;13.40;56.50;;;;;;5046755;28;20048;-69
2023/08/10 10:49:09;;;;;;;4.77;1.30;;;13.20;56.30;;;;;;5051999;28;20517;-68
2023/08/10 10:51:59;;;;;;;2.67;1.08;;;13.20;56.80;;;;;;5054668;28;20283;-68
2023/08/10 10:54:33;;;;;;;2.92;1.30;;;13.20;57.00;;;;;;5047593;28;20033;-68
2023/08/10 10:57:01;;;;;;;2.97;1.33;;;13.10;57.30;;;;;;5048799;28;20311;-68
2023/08/10 10:59:29;;;;;;;6.35;1.40;;;13.00;57.40;;;;;;5049299;28;20025;-68
2023/08/10 11:01:58;;;;;;;2.78;1.40;;;13.10;57.70;;;;;;5043455;28;20032;-68
2023/08/10 11:04:25;;;;;;;5.55;2.22;;;13.10;57.30;;;;;;5052209;28;20028;-68
2023/08/10 11:06:58;;;;;;;4.95;2.90;;;13.00;57.50;;;;;;5047860;28;20049;-68
2023/08/10 11:09:25;;;;;;;5.25;2.60;;;12.90;57.70;;;;;;5046516;28;20546;-68
2023/08/10 11:11:54;;;;;;;3.33;1.92;;;12.90;57.70;;;;;;5046443;28;20074;-68
2023/08/10 11:14:21;;;;;;;3.75;1.50;;;12.90;57.70;;;;;;5048249;28;20478;-68
2023/08/10 11:16:49;;;;;;;3.33;1.40;;;12.80;57.40;;;;;;5048523;28;20039;-68
2023/08/10 11:19:16;;;;;;;2.67;1.40;;;12.90;57.70;;;;;;5051565;28;20036;-68
2023/08/10 11:21:44;;;;;;;3.63;1.45;;;12.90;58.50;;;;;;5049319;28;20032;-68
2023/08/10 11:24:12;;;;;;;4.78;2.10;;;13.00;58.10;;;;;;5052327;28;20029;-69
2023/08/10 11:26:41;;;;;;;7.40;2.13;;;13.00;57.70;;;;;;5047597;28;20090;-68
2023/08/10 11:29:09;;;;;;;8.02;3.22;;;12.70;59.20;;;;;;5052160;28;20389;-69
2023/08/10 11:31:44;;;;;;;7.43;2.90;;;12.60;59.40;;;;;;5055100;28;20025;-69
2023/08/10 11:34:23;;;;;;;5.43;2.30;;;12.30;60.50;;;;;;5055395;28;20040;-68
2023/08/10 11:36:52;;;;;;;5.05;2.63;;;12.00;61.60;;;;;;5056187;28;20040;-69
2023/08/10 11:39:20;;;;;;;4.30;2.38;;;12.00;62.00;;;;;;5050466;28;20032;-68
2023/08/10 11:41:47;;;;;;;5.38;2.50;;;12.10;62.40;;;;;;5050272;28;20036;-69
2023/08/10 11:44:26;;;;;;;4.70;2.42;;;11.90;62.70;;;;;;5051098;28;20067;-68
2023/08/10 11:46:58;;;;;;;7.50;2.30;;;11.90;63.10;;;;;;5049551;28;20106;-68
2023/08/10 11:49:32;;;;;;;2.97;1.95;;;11.80;63.20;;;;;;5047631;28;20108;-68
2023/08/10 11:52:04;;;;;;;5.82;2.20;;;12.00;63.20;;;;;;5048984;28;20368;-68
2023/08/10 11:54:34;;;;;;;7.28;2.47;;;12.00;62.40;;;;;;5051550;28;20044;-68
2023/08/10 11:57:12;;;;;;;5.13;2.00;;;11.90;63.20;;;;;;5053603;28;20107;-68
2023/08/10 11:59:40;;;;;;;5.20;1.95;;;11.70;63.20;;;;;;5043946;28;20037;-69
2023/08/10 12:02:19;;;;;;;7.85;1.85;;;11.60;63.30;;;;;;5051237;28;20056;-68
2023/08/10 12:04:46;;;;;;;8.40;1.70;;;11.60;64.20;;;;;;5049497;28;20260;-67
2023/08/10 12:07:22;;;;;;;6.22;1.98;;;11.60;64.00;;;;;;5052364;28;20029;-68
2023/08/10 12:09:50;;;;;;;4.72;1.70;;;11.50;64.10;;;;;;5072310;28;20024;-68
2023/08/10 12:12:17;;;;;;;4.60;1.40;;;11.50;64.80;;;;;;5053867;28;20470;-68
2023/08/10 12:14:44;;;;;;;;;;;11.80;64.30;;;;;;5040900;28;20033;-68
2023/08/10 12:17:12;;;;;;;6.05;1.65;;;11.80;64.20;;;;;;5042895;28;19915;-68
2023/08/10 12:19:39;;;;;;;8.13;1.55;;;11.70;63.80;;;;;;5038975;28;20416;-68
2023/08/10 12:22:08;;;;;;;4.75;1.33;;;11.70;64.80;;;;;;5041408;28;20462;-68
2023/08/10 12:24:35;;;;;;;3.17;1.33;;;11.60;65.30;;;;;;5053605;28;20039;-67
2023/08/10 12:27:02;;;;;;;6.10;1.70;;;11.60;65.30;;;;;;5047436;28;20519;-69
2023/08/10 12:29:30;;;;;;;6.22;1.83;;;11.40;65.70;;;;;;5065937;28;20387;-69
2023/08/10 12:31:56;;;;;;;;;;;11.20;66.20;;;;;;5048743;28;20074;-69
2023/08/10 12:34:24;;;;;;;5.35;2.33;;;11.10;66.80;;;;;;5048486;28;19912;-68
2023/08/10 12:36:50;;;;;;;;;;;11.10;67.50;;;;;;5049729;28;20064;-69
2023/08/10 12:39:17;;;;;;;4.78;1.85;;;11.10;67.60;;;;;;5052154;28;20606;-68
2023/08/10 12:41:44;;;;;;;;;;;11.10;68.10;;;;;;5050500;28;20025;-68
2023/08/10 12:44:11;;;;;;;6.30;1.30;;;11.10;68.20;;;;;;5054275;28;19913;-68
2023/08/10 12:46:38;;;;;;;;;;;11.20;68.00;;;;;;5051402;28;20044;-69
2023/08/10 12:49:05;;;;;;;4.03;0.90;;;11.30;67.90;;;;;;5056028;28;19962;-69
2023/08/10 12:51:32;;;;;;;;;;;11.40;67.50;;;;;;5051722;28;20044;-69
2023/08/10 12:53:59;;;;;;;4.28;0.73;;;11.50;67.80;;;;;;5052578;28;19920;-68
2023/08/10 12:56:26;;;;;;;;;;;11.60;67.60;;;;;;5048829;28;20040;-68